Terminal Aerodrome Forecast
Issued by NWS Milwaukee/Sullivan, WI

Home | Current Version | Previous Version | Text Only | Print | Product List | Glossary On
Versions: 1 2 3 4 5 6 7 8 9 10 11 12 13 14 15 16 17 18 19 20 21 22 23 24 25 26 27 28 29 30 31 32 33 34 35 36 37 38 39 40 41 42 43 44 45 46 47 48 49 50
000
FTUS43 KMKX 031456 AAA
TAFMSN
TAF AMD
KMSN 031456Z 0315/0412 28010KT P6SM SKC
     FM031800 27011KT P6SM SCT060
     FM032000 27012G22KT P6SM SCT060
     FM040100 25009KT P6SM -SHRA BKN060 PROB30 0401/0404 4SM -TSRA
      OVC040CB
     FM040500 31006KT P6SM BKN070
     FM040900 35009KT P6SM FEW050=

USA.gov is the U.S. government's official web portal to all federal, state and local government web resources and services.